createdAt,value
2023-03-02T00:02:15.726Z,0.82
2023-03-02T00:05:41.729Z,1.13
2023-03-02T00:09:08.988Z,1.10
2023-03-02T00:12:36.561Z,0.60
2023-03-02T00:16:00.834Z,0.82
2023-03-02T00:19:29.642Z,1.67
2023-03-02T00:22:55.987Z,1.02
2023-03-02T00:26:23.759Z,0.50
2023-03-02T00:29:49.685Z,0.60
2023-03-02T00:33:14.688Z,1.17
2023-03-02T00:36:43.151Z,0.98
2023-03-02T00:40:10.774Z,0.80
2023-03-02T00:43:36.676Z,0.60
2023-03-02T00:47:02.653Z,0.90
2023-03-02T00:50:28.535Z,1.23
2023-03-02T00:53:54.668Z,0.68
2023-03-02T00:57:20.089Z,0.63
2023-03-02T01:00:50.739Z,0.70
2023-03-02T01:04:17.783Z,0.73
2023-03-02T01:07:44.839Z,0.70
2023-03-02T01:11:19.641Z,0.50
2023-03-02T01:14:54.070Z,0.75
2023-03-02T01:18:19.730Z,0.55
2023-03-02T01:21:45.048Z,0.75
2023-03-02T01:25:12.004Z,0.82
2023-03-02T01:28:39.065Z,1.20
2023-03-02T01:32:07.197Z,0.60
2023-03-02T01:35:35.041Z,0.70
2023-03-02T01:39:03.240Z,1.85
2023-03-02T01:42:28.714Z,1.05
2023-03-02T01:45:58.791Z,1.98
2023-03-02T01:49:24.570Z,0.70
2023-03-02T01:52:48.962Z,1.17
2023-03-02T01:56:14.798Z,1.67
2023-03-02T01:59:42.869Z,1.20
2023-03-02T02:03:15.089Z,1.08
2023-03-02T02:06:42.206Z,0.63
2023-03-02T02:10:08.781Z,0.98
2023-03-02T02:13:35.932Z,1.10
2023-03-02T02:17:01.750Z,1.27
2023-03-02T02:20:37.817Z,0.75
2023-03-02T02:24:12.232Z,1.05
2023-03-02T02:27:39.798Z,1.38
2023-03-02T02:31:12.096Z,1.00
2023-03-02T02:34:43.663Z,0.57
2023-03-02T02:38:12.232Z,0.90
2023-03-02T02:41:41.648Z,1.75
2023-03-02T02:45:10.749Z,0.70
2023-03-02T02:48:40.471Z,0.80
2023-03-02T02:52:05.876Z,0.65
2023-03-02T02:55:30.582Z,1.08
2023-03-02T02:58:57.944Z,0.60
2023-03-02T03:02:27.155Z,0.60
2023-03-02T03:05:52.122Z,0.75
2023-03-02T03:09:17.151Z,0.80
2023-03-02T03:12:42.685Z,1.13
2023-03-02T03:16:09.742Z,1.75
2023-03-02T03:19:36.416Z,0.80
2023-03-02T03:23:01.714Z,1.83
2023-03-02T03:26:24.829Z,1.50
2023-03-02T03:29:50.137Z,2.17
2023-03-02T03:33:13.646Z,1.42
2023-03-02T03:36:39.167Z,1.20
2023-03-02T03:40:02.738Z,1.13
2023-03-02T03:43:25.717Z,1.52
2023-03-02T03:46:48.556Z,1.00
2023-03-02T03:50:12.410Z,1.05
2023-03-02T03:53:37.649Z,1.17
2023-03-02T03:57:00.608Z,2.22
2023-03-02T04:00:25.002Z,1.30
2023-03-02T04:03:48.276Z,1.02
2023-03-02T04:07:11.534Z,1.67
2023-03-02T04:10:37.053Z,1.50
2023-03-02T04:14:00.443Z,1.63
2023-03-02T04:17:23.589Z,2.25
2023-03-02T04:20:46.753Z,7.25
2023-03-02T04:24:10.926Z,2.90
2023-03-02T04:27:35.440Z,2.45
2023-03-02T04:30:59.560Z,6.45
2023-03-02T04:34:22.492Z,2.53
2023-03-02T04:37:47.405Z,4.10
2023-03-02T04:41:10.948Z,4.13
2023-03-02T04:44:35.884Z,3.80
2023-03-02T04:47:59.772Z,7.95
2023-03-02T04:51:26.106Z,7.22
2023-03-02T04:54:49.785Z,7.97
2023-03-02T04:58:13.465Z,11.35
2023-03-02T05:01:38.676Z,6.90
2023-03-02T05:05:01.544Z,4.40
2023-03-02T05:08:24.807Z,6.05
2023-03-02T05:11:47.927Z,5.00
2023-03-02T05:15:11.637Z,4.75
2023-03-02T05:18:37.008Z,3.40
2023-03-02T05:21:59.939Z,4.05
2023-03-02T05:25:23.693Z,8.43
2023-03-02T05:28:47.700Z,3.00
2023-03-02T05:32:13.083Z,3.25
2023-03-02T05:35:39.035Z,3.17
2023-03-02T05:39:04.133Z,3.90
2023-03-02T05:42:28.731Z,4.22
2023-03-02T05:45:51.702Z,2.72
2023-03-02T05:49:15.017Z,2.45
2023-03-02T05:52:40.174Z,2.40
2023-03-02T05:56:03.979Z,1.98
2023-03-02T05:59:27.621Z,1.92
2023-03-02T06:02:56.985Z,4.13
2023-03-02T06:06:20.713Z,2.97
2023-03-02T06:09:45.207Z,3.45
2023-03-02T06:13:08.471Z,4.90
2023-03-02T06:16:32.554Z,4.85
2023-03-02T06:19:55.929Z,3.72
2023-03-02T06:23:19.406Z,2.88
2023-03-02T06:26:44.407Z,3.72
2023-03-02T06:30:09.826Z,3.50
2023-03-02T06:33:33.206Z,1.90
2023-03-02T06:36:57.896Z,3.10
2023-03-02T06:40:22.056Z,3.47
2023-03-02T06:43:46.385Z,2.42
2023-03-02T06:47:09.238Z,1.33
2023-03-02T06:50:32.401Z,2.33
2023-03-02T06:53:55.778Z,1.52
2023-03-02T06:57:19.653Z,1.90
2023-03-02T07:00:43.755Z,1.13
2023-03-02T07:04:07.282Z,0.88
2023-03-02T07:07:30.774Z,1.00
2023-03-02T07:10:54.092Z,1.40
2023-03-02T07:14:17.056Z,0.90
2023-03-02T07:17:44.100Z,0.70
2023-03-02T07:21:07.869Z,0.80
2023-03-02T07:24:31.316Z,0.77
2023-03-02T07:27:54.270Z,0.80
2023-03-02T07:31:19.740Z,0.52
2023-03-02T07:34:44.798Z,1.65
2023-03-02T07:38:08.689Z,0.93
2023-03-02T07:41:31.763Z,1.10
2023-03-02T07:44:56.057Z,1.30
2023-03-02T07:48:20.739Z,1.25
2023-03-02T07:51:47.695Z,0.77
2023-03-02T07:55:11.786Z,3.72
2023-03-02T07:58:35.386Z,1.60
2023-03-02T08:01:59.788Z,2.17
2023-03-02T08:05:23.222Z,1.20
2023-03-02T08:08:48.233Z,1.48
2023-03-02T08:12:11.800Z,1.70
2023-03-02T08:15:35.072Z,1.00
2023-03-02T08:19:00.048Z,2.92
2023-03-02T08:22:23.867Z,2.88
2023-03-02T08:25:48.356Z,1.10
2023-03-02T08:29:12.643Z,1.63
2023-03-02T08:32:35.963Z,2.17
2023-03-02T08:36:00.424Z,1.90
2023-03-02T08:39:24.161Z,1.92
2023-03-02T08:42:50.328Z,1.83
2023-03-02T08:46:15.116Z,3.33
2023-03-02T08:49:39.106Z,2.78
2023-03-02T08:53:02.889Z,2.47
2023-03-02T08:56:28.094Z,1.77
2023-03-02T08:59:53.718Z,2.58
2023-03-02T09:03:16.885Z,2.15
2023-03-02T09:06:43.060Z,1.50
2023-03-02T09:10:08.184Z,1.10
2023-03-02T09:13:31.911Z,1.33
2023-03-02T09:16:56.825Z,2.05
2023-03-02T09:20:20.622Z,1.27
2023-03-02T09:23:44.520Z,1.73
2023-03-02T09:27:07.949Z,1.35
2023-03-02T09:30:30.561Z,1.58
2023-03-02T09:33:57.981Z,1.55
2023-03-02T09:37:22.356Z,1.88
2023-03-02T09:41:05.200Z,3.08
2023-03-02T09:45:01.962Z,1.33
2023-03-02T09:48:38.416Z,1.35
2023-03-02T09:52:12.332Z,1.40
2023-03-02T09:55:38.567Z,2.10
2023-03-02T09:59:05.725Z,1.13
2023-03-02T10:02:34.119Z,0.82
2023-03-02T10:05:59.118Z,1.20
2023-03-02T10:09:23.825Z,1.48
2023-03-02T10:12:58.063Z,1.25
2023-03-02T10:16:31.667Z,1.33
2023-03-02T10:20:01.071Z,1.50
2023-03-02T10:23:39.488Z,1.60
2023-03-02T10:27:15.063Z,1.13
2023-03-02T10:30:40.698Z,1.75
2023-03-02T10:34:03.932Z,1.88
2023-03-02T10:37:31.209Z,1.73
2023-03-02T10:41:00.595Z,2.22
2023-03-02T10:47:50.421Z,1.98
2023-03-02T10:51:24.437Z,1.17
2023-03-02T10:54:48.005Z,1.40
2023-03-02T10:58:27.146Z,2.60
2023-03-02T11:02:03.141Z,1.42
2023-03-02T11:05:33.445Z,1.70
2023-03-02T11:09:02.767Z,1.95
2023-03-02T11:12:26.327Z,1.63
2023-03-02T11:15:51.660Z,1.40
2023-03-02T11:19:20.134Z,1.50
2023-03-02T11:22:49.334Z,1.58
2023-03-02T11:29:46.761Z,1.40
2023-03-02T11:33:17.429Z,2.90
2023-03-02T11:36:58.933Z,1.98
2023-03-02T11:40:27.619Z,2.72
2023-03-02T11:47:14.607Z,1.40
2023-03-02T11:50:47.360Z,1.77
2023-03-02T11:54:24.659Z,2.78
2023-03-02T11:57:50.937Z,1.85
2023-03-02T12:01:20.660Z,1.67
2023-03-02T12:04:43.918Z,2.38
2023-03-02T12:08:09.541Z,2.22
2023-03-02T12:11:38.847Z,1.42
2023-03-02T12:15:02.523Z,2.28
2023-03-02T12:18:48.119Z,1.65
2023-03-02T12:22:15.092Z,1.33
2023-03-02T12:25:51.818Z,1.85
2023-03-02T12:29:27.211Z,1.30
2023-03-02T12:33:04.507Z,1.98
2023-03-02T12:36:32.184Z,2.00
2023-03-02T12:40:27.186Z,2.03
2023-03-02T12:44:00.840Z,1.30
2023-03-02T12:47:30.505Z,1.38
2023-03-02T12:50:59.045Z,2.05
2023-03-02T12:54:24.826Z,2.28
2023-03-02T12:57:53.316Z,1.40
2023-03-02T13:01:23.914Z,1.20
2023-03-02T13:04:55.834Z,1.50
2023-03-02T13:08:24.762Z,1.55
2023-03-02T13:11:50.437Z,1.45
2023-03-02T13:15:17.605Z,2.10
2023-03-02T13:18:41.185Z,1.67
2023-03-02T13:22:09.126Z,4.75
2023-03-02T13:25:33.449Z,3.20
2023-03-02T13:29:04.464Z,2.03
2023-03-02T13:32:29.326Z,1.60
2023-03-02T13:35:52.257Z,1.75
2023-03-02T13:39:22.392Z,1.48
2023-03-02T13:42:45.274Z,1.70
2023-03-02T13:46:28.797Z,1.08
2023-03-02T13:49:51.796Z,1.80
2023-03-02T13:53:15.322Z,1.92
2023-03-02T13:56:42.384Z,1.83
2023-03-02T14:00:07.178Z,1.50
2023-03-02T14:03:32.758Z,1.98
2023-03-02T14:06:58.122Z,2.13
2023-03-02T14:10:22.408Z,1.60
2023-03-02T14:13:51.210Z,1.88
2023-03-02T14:17:18.878Z,1.98
2023-03-02T14:20:42.857Z,2.67
2023-03-02T14:24:05.439Z,4.00
2023-03-02T14:27:32.061Z,2.83
2023-03-02T14:30:58.961Z,1.45
2023-03-02T14:34:21.968Z,1.08
2023-03-02T14:37:47.512Z,2.40
2023-03-02T14:41:15.673Z,1.50
2023-03-02T14:44:39.863Z,2.40
2023-03-02T14:48:04.870Z,3.65
2023-03-02T14:51:32.801Z,2.65
2023-03-02T14:55:00.209Z,3.08
2023-03-02T14:58:31.835Z,2.35
2023-03-02T15:01:58.472Z,2.00
2023-03-02T15:05:25.558Z,2.83
2023-03-02T15:08:49.155Z,1.63
2023-03-02T15:12:13.348Z,2.90
2023-03-02T15:15:36.205Z,3.60
2023-03-02T15:18:59.491Z,1.70
2023-03-02T15:22:24.380Z,1.67
2023-03-02T15:25:47.336Z,2.72
2023-03-02T15:29:10.569Z,2.70
2023-03-02T15:32:33.489Z,2.78
2023-03-02T15:35:57.073Z,2.53
2023-03-02T15:39:21.943Z,2.53
2023-03-02T15:42:45.512Z,2.22
2023-03-02T15:46:09.705Z,1.38
2023-03-02T15:49:33.389Z,1.80
2023-03-02T15:52:57.770Z,2.60
2023-03-02T15:56:22.911Z,1.73
2023-03-02T15:59:48.199Z,2.83
2023-03-02T16:03:13.523Z,3.00
2023-03-02T16:06:37.394Z,3.25
2023-03-02T16:10:00.366Z,2.20
2023-03-02T16:13:25.571Z,3.58
2023-03-02T16:16:48.626Z,2.72
2023-03-02T16:20:12.922Z,1.80
2023-03-02T16:23:35.781Z,1.52
2023-03-02T16:26:58.327Z,5.28
2023-03-02T16:30:23.793Z,21.60
2023-03-02T16:33:48.633Z,16.27
2023-03-02T16:37:12.376Z,3.47
2023-03-02T16:40:35.600Z,2.00
2023-03-02T16:44:00.231Z,2.20
2023-03-02T16:47:25.111Z,2.70
2023-03-02T16:50:48.878Z,3.83
2023-03-02T16:54:14.297Z,3.25
2023-03-02T16:57:37.475Z,1.85
2023-03-02T17:01:01.637Z,3.70
2023-03-02T17:04:27.106Z,5.43
2023-03-02T17:07:51.158Z,5.18
2023-03-02T17:11:14.216Z,3.53
2023-03-02T17:14:37.483Z,5.28
2023-03-02T17:18:01.880Z,3.03
2023-03-02T17:21:28.421Z,3.40
2023-03-02T17:24:52.108Z,3.03
2023-03-02T17:28:16.490Z,4.05
2023-03-02T17:31:39.346Z,5.57
2023-03-02T17:35:02.820Z,6.22
2023-03-02T17:38:27.827Z,4.05
2023-03-02T17:41:51.399Z,6.78
2023-03-02T17:45:20.316Z,5.00
2023-03-02T17:48:44.286Z,2.17
2023-03-02T17:52:07.856Z,1.95
2023-03-02T17:55:31.843Z,1.80
2023-03-02T17:58:56.336Z,6.18
2023-03-02T18:02:20.427Z,14.48
2023-03-02T18:05:43.895Z,2.90
2023-03-02T18:09:07.469Z,2.80
2023-03-02T18:12:32.280Z,4.15
2023-03-02T18:15:55.579Z,1.52
2023-03-02T18:19:19.634Z,1.67
2023-03-02T18:22:43.308Z,1.30
2023-03-02T18:26:06.737Z,2.60
2023-03-02T18:29:30.866Z,1.52
2023-03-02T18:32:54.543Z,1.88
2023-03-02T18:36:18.518Z,2.08
2023-03-02T18:39:42.196Z,2.65
2023-03-02T18:43:05.053Z,2.42
2023-03-02T18:46:32.697Z,2.78
2023-03-02T18:49:56.503Z,1.33
2023-03-02T18:53:19.877Z,2.40
2023-03-02T18:56:43.142Z,2.95
2023-03-02T19:00:07.543Z,2.95
2023-03-02T19:03:34.226Z,2.40
2023-03-02T19:07:01.141Z,2.05
2023-03-02T19:10:24.753Z,2.88
2023-03-02T19:13:48.391Z,3.25
2023-03-02T19:17:12.170Z,2.08
2023-03-02T19:20:37.588Z,2.28
2023-03-02T19:24:02.496Z,1.92
2023-03-02T19:27:27.610Z,2.13
2023-03-02T19:30:50.702Z,1.95
2023-03-02T19:34:13.799Z,1.30
2023-03-02T19:37:41.527Z,1.85
2023-03-02T19:41:04.667Z,1.98
2023-03-02T19:44:27.428Z,2.10
2023-03-02T19:47:51.418Z,1.30
2023-03-02T19:51:16.725Z,1.25
2023-03-02T19:54:43.976Z,1.38
2023-03-02T19:58:08.368Z,1.80
2023-03-02T20:01:32.040Z,1.48
2023-03-02T20:04:55.132Z,2.03
2023-03-02T20:08:21.984Z,2.00
2023-03-02T20:11:46.659Z,1.80
2023-03-02T20:15:10.645Z,1.92
2023-03-02T20:18:33.745Z,1.33
2023-03-02T20:21:56.664Z,2.30
2023-03-02T20:25:20.749Z,1.75
2023-03-02T20:28:45.841Z,1.00
2023-03-02T20:32:11.391Z,0.77
2023-03-02T20:35:38.261Z,0.90
2023-03-02T20:39:03.449Z,1.08
2023-03-02T20:42:26.509Z,0.85
2023-03-02T20:45:51.026Z,0.82
2023-03-02T20:49:15.522Z,1.83
2023-03-02T20:52:38.862Z,1.88
2023-03-02T20:56:03.772Z,1.85
2023-03-02T20:59:28.583Z,2.90
2023-03-02T21:02:54.001Z,4.07
2023-03-02T21:06:18.680Z,10.43
2023-03-02T21:09:42.844Z,5.30
2023-03-02T21:13:08.192Z,2.33
2023-03-02T21:16:36.849Z,1.13
2023-03-02T21:20:01.697Z,0.95
2023-03-02T21:23:24.850Z,1.85
2023-03-02T21:26:48.548Z,1.85
2023-03-02T21:30:17.027Z,1.45
2023-03-02T21:33:40.500Z,1.00
2023-03-02T21:37:05.610Z,0.90
2023-03-02T21:40:32.297Z,0.90
2023-03-02T21:43:55.122Z,0.80
2023-03-02T21:47:18.484Z,0.95
2023-03-02T21:50:42.372Z,0.77
2023-03-02T21:54:07.384Z,1.65
2023-03-02T21:57:30.642Z,0.70
2023-03-02T22:00:54.011Z,1.27
2023-03-02T22:04:17.490Z,0.73
2023-03-02T22:07:41.263Z,0.57
2023-03-02T22:11:06.172Z,0.65
2023-03-02T22:14:29.644Z,0.60
2023-03-02T22:17:56.084Z,0.60
2023-03-02T22:21:28.803Z,0.98
2023-03-02T22:24:54.711Z,0.32
2023-03-02T22:28:22.878Z,1.05
2023-03-02T22:31:49.920Z,1.38
2023-03-02T22:35:23.808Z,0.40
2023-03-02T22:38:48.053Z,0.38
2023-03-02T22:42:17.233Z,0.65
2023-03-02T22:45:46.231Z,0.80
2023-03-02T22:49:18.535Z,0.60
2023-03-02T22:52:44.578Z,1.20
2023-03-02T22:56:26.084Z,1.45
2023-03-02T22:59:51.803Z,1.33
2023-03-02T23:03:21.433Z,0.60
2023-03-02T23:10:19.817Z,2.30
2023-03-02T23:13:44.824Z,1.30
2023-03-02T23:17:17.717Z,1.33
2023-03-02T23:20:43.645Z,2.28
2023-03-02T23:24:08.250Z,1.08
2023-03-02T23:27:32.957Z,0.68
2023-03-02T23:30:58.900Z,0.77
2023-03-02T23:34:25.725Z,0.70
2023-03-02T23:37:52.251Z,1.30
2023-03-02T23:41:17.341Z,1.25
2023-03-02T23:44:43.276Z,0.60
2023-03-02T23:48:09.749Z,0.85
2023-03-02T23:51:34.141Z,0.73
2023-03-02T23:55:00.082Z,0.60
2023-03-02T23:58:25.593Z,1.30
